sensor_id;sensor_type;location;lat;lon;timestamp;P1;durP1;ratioP1;P2;durP2;ratioP2
58992;SDS011;44782;0.000;0.000;2023-04-01T00:00:37;2.93;;;1.30;;
58992;SDS011;44782;0.000;0.000;2023-04-01T00:02:53;1.63;;;1.30;;
58992;SDS011;44782;0.000;0.000;2023-04-01T00:05:09;2.27;;;1.30;;
58992;SDS011;44782;0.000;0.000;2023-04-01T00:07:27;2.53;;;1.50;;
58992;SDS011;44782;0.000;0.000;2023-04-01T00:09:43;1.90;;;1.40;;
58992;SDS011;44782;0.000;0.000;2023-04-01T00:11:59;2.10;;;1.43;;
58992;SDS011;44782;0.000;0.000;2023-04-01T00:14:14;2.20;;;1.47;;
58992;SDS011;44782;0.000;0.000;2023-04-01T00:16:30;2.00;;;1.30;;
58992;SDS011;44782;0.000;0.000;2023-04-01T00:18:46;2.77;;;1.50;;
58992;SDS011;44782;0.000;0.000;2023-04-01T00:21:02;2.60;;;1.30;;
58992;SDS011;44782;0.000;0.000;2023-04-01T00:23:19;2.20;;;1.60;;
58992;SDS011;44782;0.000;0.000;2023-04-01T00:25:35;2.33;;;1.60;;
58992;SDS011;44782;0.000;0.000;2023-04-01T00:27:51;2.57;;;1.57;;
58992;SDS011;44782;0.000;0.000;2023-04-01T00:30:07;1.67;;;1.40;;
58992;SDS011;44782;0.000;0.000;2023-04-01T00:32:23;2.23;;;1.40;;
58992;SDS011;44782;0.000;0.000;2023-04-01T00:34:39;2.33;;;1.37;;
58992;SDS011;44782;0.000;0.000;2023-04-01T00:36:55;2.07;;;1.37;;
58992;SDS011;44782;0.000;0.000;2023-04-01T00:39:10;2.13;;;1.40;;
58992;SDS011;44782;0.000;0.000;2023-04-01T00:41:26;1.73;;;1.27;;
58992;SDS011;44782;0.000;0.000;2023-04-01T00:43:43;2.03;;;1.40;;
58992;SDS011;44782;0.000;0.000;2023-04-01T00:46:00;1.80;;;1.30;;
58992;SDS011;44782;0.000;0.000;2023-04-01T00:48:17;2.37;;;1.40;;
58992;SDS011;44782;0.000;0.000;2023-04-01T00:50:40;2.63;;;1.50;;
58992;SDS011;44782;0.000;0.000;2023-04-01T00:53:00;1.53;;;1.30;;
58992;SDS011;44782;0.000;0.000;2023-04-01T00:55:18;2.17;;;1.40;;
58992;SDS011;44782;0.000;0.000;2023-04-01T00:57:36;2.80;;;1.30;;
58992;SDS011;44782;0.000;0.000;2023-04-01T00:59:54;1.47;;;1.30;;
58992;SDS011;44782;0.000;0.000;2023-04-01T01:02:11;2.10;;;1.47;;
58992;SDS011;44782;0.000;0.000;2023-04-01T01:04:29;2.50;;;1.47;;
58992;SDS011;44782;0.000;0.000;2023-04-01T01:06:49;2.13;;;1.37;;
58992;SDS011;44782;0.000;0.000;2023-04-01T01:11:59;2.03;;;1.40;;
58992;SDS011;44782;0.000;0.000;2023-04-01T01:14:28;1.90;;;1.30;;
58992;SDS011;44782;0.000;0.000;2023-04-01T01:17:47;2.30;;;1.30;;
58992;SDS011;44782;0.000;0.000;2023-04-01T01:27:35;2.23;;;1.40;;
58992;SDS011;44782;0.000;0.000;2023-04-01T01:35:24;2.20;;;1.50;;
58992;SDS011;44782;0.000;0.000;2023-04-01T01:37:57;1.70;;;1.30;;
58992;SDS011;44782;0.000;0.000;2023-04-01T01:40:16;1.97;;;1.40;;
58992;SDS011;44782;0.000;0.000;2023-04-01T01:42:33;1.53;;;1.40;;
58992;SDS011;44782;0.000;0.000;2023-04-01T01:44:52;1.70;;;1.30;;
58992;SDS011;44782;0.000;0.000;2023-04-01T01:47:09;2.33;;;1.30;;
58992;SDS011;44782;0.000;0.000;2023-04-01T01:49:27;2.63;;;1.40;;
58992;SDS011;44782;0.000;0.000;2023-04-01T01:51:45;2.13;;;1.40;;
58992;SDS011;44782;0.000;0.000;2023-04-01T01:54:01;1.70;;;1.30;;
58992;SDS011;44782;0.000;0.000;2023-04-01T01:56:17;1.37;;;1.10;;
58992;SDS011;44782;0.000;0.000;2023-04-01T01:58:37;1.63;;;1.40;;
58992;SDS011;44782;0.000;0.000;2023-04-01T02:01:01;1.57;;;1.30;;
58992;SDS011;44782;0.000;0.000;2023-04-01T02:03:20;2.20;;;1.50;;
58992;SDS011;44782;0.000;0.000;2023-04-01T02:05:37;1.70;;;1.30;;
58992;SDS011;44782;0.000;0.000;2023-04-01T02:10:19;1.60;;;1.20;;
58992;SDS011;44782;0.000;0.000;2023-04-01T02:12:40;2.00;;;1.40;;
58992;SDS011;44782;0.000;0.000;2023-04-01T02:15:05;1.87;;;1.30;;
58992;SDS011;44782;0.000;0.000;2023-04-01T02:17:25;1.80;;;1.40;;
58992;SDS011;44782;0.000;0.000;2023-04-01T02:20:03;2.20;;;1.37;;
58992;SDS011;44782;0.000;0.000;2023-04-01T02:22:24;1.47;;;1.20;;
58992;SDS011;44782;0.000;0.000;2023-04-01T02:24:42;1.20;;;1.10;;
58992;SDS011;44782;0.000;0.000;2023-04-01T02:27:00;1.93;;;1.40;;
58992;SDS011;44782;0.000;0.000;2023-04-01T02:29:19;2.93;;;1.33;;
58992;SDS011;44782;0.000;0.000;2023-04-01T02:31:38;1.30;;;1.20;;
58992;SDS011;44782;0.000;0.000;2023-04-01T02:33:54;2.10;;;1.47;;
58992;SDS011;44782;0.000;0.000;2023-04-01T02:36:12;1.80;;;1.30;;
58992;SDS011;44782;0.000;0.000;2023-04-01T02:38:29;1.67;;;1.20;;
58992;SDS011;44782;0.000;0.000;2023-04-01T02:40:47;1.57;;;1.30;;
58992;SDS011;44782;0.000;0.000;2023-04-01T02:43:05;1.37;;;1.20;;
58992;SDS011;44782;0.000;0.000;2023-04-01T02:45:20;2.17;;;1.17;;
58992;SDS011;44782;0.000;0.000;2023-04-01T02:47:36;2.23;;;1.33;;
58992;SDS011;44782;0.000;0.000;2023-04-01T02:49:52;2.03;;;1.40;;
58992;SDS011;44782;0.000;0.000;2023-04-01T02:52:13;1.27;;;1.07;;
58992;SDS011;44782;0.000;0.000;2023-04-01T02:54:29;1.53;;;1.20;;
58992;SDS011;44782;0.000;0.000;2023-04-01T02:56:44;2.07;;;1.23;;
58992;SDS011;44782;0.000;0.000;2023-04-01T02:59:00;1.77;;;1.33;;
58992;SDS011;44782;0.000;0.000;2023-04-01T03:01:16;1.53;;;1.17;;
58992;SDS011;44782;0.000;0.000;2023-04-01T03:03:32;1.50;;;1.20;;
58992;SDS011;44782;0.000;0.000;2023-04-01T03:05:48;1.80;;;1.17;;
58992;SDS011;44782;0.000;0.000;2023-04-01T03:08:03;1.33;;;1.13;;
58992;SDS011;44782;0.000;0.000;2023-04-01T03:10:20;2.27;;;1.43;;
58992;SDS011;44782;0.000;0.000;2023-04-01T03:12:36;1.53;;;1.30;;
58992;SDS011;44782;0.000;0.000;2023-04-01T03:14:52;1.60;;;1.20;;
58992;SDS011;44782;0.000;0.000;2023-04-01T03:17:07;1.30;;;1.10;;
58992;SDS011;44782;0.000;0.000;2023-04-01T03:19:23;1.73;;;1.30;;
58992;SDS011;44782;0.000;0.000;2023-04-01T03:21:38;1.60;;;1.30;;
58992;SDS011;44782;0.000;0.000;2023-04-01T03:23:54;2.23;;;1.30;;
58992;SDS011;44782;0.000;0.000;2023-04-01T03:26:10;1.70;;;1.10;;
58992;SDS011;44782;0.000;0.000;2023-04-01T03:28:26;1.27;;;1.10;;
58992;SDS011;44782;0.000;0.000;2023-04-01T03:30:41;1.83;;;1.20;;
58992;SDS011;44782;0.000;0.000;2023-04-01T03:32:57;1.77;;;1.20;;
58992;SDS011;44782;0.000;0.000;2023-04-01T03:35:14;1.50;;;1.10;;
58992;SDS011;44782;0.000;0.000;2023-04-01T03:37:30;2.13;;;1.40;;
58992;SDS011;44782;0.000;0.000;2023-04-01T03:39:46;1.33;;;1.10;;
58992;SDS011;44782;0.000;0.000;2023-04-01T03:42:01;1.43;;;1.20;;
58992;SDS011;44782;0.000;0.000;2023-04-01T03:44:17;1.73;;;1.30;;
58992;SDS011;44782;0.000;0.000;2023-04-01T03:46:32;1.90;;;1.20;;
58992;SDS011;44782;0.000;0.000;2023-04-01T03:48:48;2.00;;;1.20;;
58992;SDS011;44782;0.000;0.000;2023-04-01T03:51:07;1.30;;;1.10;;
58992;SDS011;44782;0.000;0.000;2023-04-01T03:53:23;1.43;;;1.33;;
58992;SDS011;44782;0.000;0.000;2023-04-01T03:55:39;1.63;;;1.40;;
58992;SDS011;44782;0.000;0.000;2023-04-01T03:57:54;1.60;;;1.20;;
58992;SDS011;44782;0.000;0.000;2023-04-01T04:00:10;1.50;;;1.13;;
58992;SDS011;44782;0.000;0.000;2023-04-01T04:02:26;1.97;;;1.30;;
58992;SDS011;44782;0.000;0.000;2023-04-01T04:04:42;1.40;;;1.20;;
58992;SDS011;44782;0.000;0.000;2023-04-01T04:06:57;1.50;;;1.20;;
58992;SDS011;44782;0.000;0.000;2023-04-01T04:09:13;1.33;;;1.20;;
58992;SDS011;44782;0.000;0.000;2023-04-01T04:11:30;1.20;;;1.10;;
58992;SDS011;44782;0.000;0.000;2023-04-01T04:13:47;1.20;;;1.10;;
58992;SDS011;44782;0.000;0.000;2023-04-01T04:16:03;1.10;;;1.00;;
58992;SDS011;44782;0.000;0.000;2023-04-01T04:18:18;1.77;;;1.37;;
58992;SDS011;44782;0.000;0.000;2023-04-01T04:20:34;1.37;;;1.13;;
58992;SDS011;44782;0.000;0.000;2023-04-01T04:22:50;1.30;;;1.00;;
58992;SDS011;44782;0.000;0.000;2023-04-01T04:25:06;1.57;;;1.17;;
58992;SDS011;44782;0.000;0.000;2023-04-01T04:27:22;1.40;;;1.10;;
58992;SDS011;44782;0.000;0.000;2023-04-01T04:29:38;1.10;;;1.00;;
58992;SDS011;44782;0.000;0.000;2023-04-01T04:31:53;1.53;;;1.07;;
58992;SDS011;44782;0.000;0.000;2023-04-01T04:34:09;1.53;;;1.00;;
58992;SDS011;44782;0.000;0.000;2023-04-01T04:36:25;1.30;;;1.13;;
58992;SDS011;44782;0.000;0.000;2023-04-01T04:38:40;1.33;;;1.20;;
58992;SDS011;44782;0.000;0.000;2023-04-01T04:40:56;1.40;;;1.10;;
58992;SDS011;44782;0.000;0.000;2023-04-01T04:43:12;1.43;;;1.20;;
58992;SDS011;44782;0.000;0.000;2023-04-01T04:45:29;1.10;;;1.00;;
58992;SDS011;44782;0.000;0.000;2023-04-01T04:47:45;1.70;;;1.17;;
58992;SDS011;44782;0.000;0.000;2023-04-01T04:50:01;1.17;;;1.07;;
58992;SDS011;44782;0.000;0.000;2023-04-01T04:52:16;1.57;;;1.20;;
58992;SDS011;44782;0.000;0.000;2023-04-01T04:54:32;1.20;;;1.07;;
58992;SDS011;44782;0.000;0.000;2023-04-01T04:56:48;1.47;;;1.20;;
58992;SDS011;44782;0.000;0.000;2023-04-01T04:59:06;1.40;;;1.30;;
58992;SDS011;44782;0.000;0.000;2023-04-01T05:01:22;1.47;;;1.13;;
58992;SDS011;44782;0.000;0.000;2023-04-01T05:03:38;2.07;;;1.20;;
58992;SDS011;44782;0.000;0.000;2023-04-01T05:05:55;1.50;;;1.23;;
58992;SDS011;44782;0.000;0.000;2023-04-01T05:08:10;1.97;;;1.27;;
58992;SDS011;44782;0.000;0.000;2023-04-01T05:10:26;1.47;;;1.20;;
58992;SDS011;44782;0.000;0.000;2023-04-01T05:12:42;1.37;;;1.20;;
58992;SDS011;44782;0.000;0.000;2023-04-01T05:14:57;1.63;;;1.20;;
58992;SDS011;44782;0.000;0.000;2023-04-01T05:17:13;2.07;;;1.40;;
58992;SDS011;44782;0.000;0.000;2023-04-01T05:19:29;1.57;;;1.23;;
58992;SDS011;44782;0.000;0.000;2023-04-01T05:21:44;1.10;;;1.00;;
58992;SDS011;44782;0.000;0.000;2023-04-01T05:24:00;1.63;;;1.30;;
58992;SDS011;44782;0.000;0.000;2023-04-01T05:26:16;1.37;;;1.20;;
58992;SDS011;44782;0.000;0.000;2023-04-01T05:28:31;1.63;;;1.27;;
58992;SDS011;44782;0.000;0.000;2023-04-01T05:30:47;1.30;;;1.17;;
58992;SDS011;44782;0.000;0.000;2023-04-01T05:33:03;1.63;;;1.20;;
58992;SDS011;44782;0.000;0.000;2023-04-01T05:35:18;1.33;;;1.13;;
58992;SDS011;44782;0.000;0.000;2023-04-01T05:37:34;2.23;;;1.30;;
58992;SDS011;44782;0.000;0.000;2023-04-01T05:39:50;1.57;;;1.10;;
58992;SDS011;44782;0.000;0.000;2023-04-01T05:42:06;1.97;;;1.30;;
58992;SDS011;44782;0.000;0.000;2023-04-01T05:44:22;1.57;;;1.30;;
58992;SDS011;44782;0.000;0.000;2023-04-01T05:46:38;1.70;;;1.03;;
58992;SDS011;44782;0.000;0.000;2023-04-01T05:48:53;1.57;;;1.10;;
58992;SDS011;44782;0.000;0.000;2023-04-01T05:51:15;1.73;;;1.10;;
58992;SDS011;44782;0.000;0.000;2023-04-01T05:53:31;2.20;;;1.33;;
58992;SDS011;44782;0.000;0.000;2023-04-01T05:55:47;1.23;;;1.03;;
58992;SDS011;44782;0.000;0.000;2023-04-01T05:58:03;1.50;;;1.27;;
58992;SDS011;44782;0.000;0.000;2023-04-01T06:00:18;1.40;;;1.20;;
58992;SDS011;44782;0.000;0.000;2023-04-01T06:02:34;1.23;;;1.13;;
58992;SDS011;44782;0.000;0.000;2023-04-01T06:05:01;1.67;;;1.10;;
58992;SDS011;44782;0.000;0.000;2023-04-01T06:07:33;1.43;;;1.27;;
58992;SDS011;44782;0.000;0.000;2023-04-01T06:09:49;1.57;;;1.13;;
58992;SDS011;44782;0.000;0.000;2023-04-01T06:17:23;1.67;;;1.20;;
58992;SDS011;44782;0.000;0.000;2023-04-01T06:19:50;1.50;;;1.20;;
58992;SDS011;44782;0.000;0.000;2023-04-01T06:29:23;1.60;;;1.20;;
58992;SDS011;44782;0.000;0.000;2023-04-01T06:32:06;1.67;;;1.13;;
58992;SDS011;44782;0.000;0.000;2023-04-01T06:42:12;1.57;;;1.10;;
58992;SDS011;44782;0.000;0.000;2023-04-01T06:55:17;1.67;;;1.27;;
58992;SDS011;44782;0.000;0.000;2023-04-01T06:57:43;1.73;;;1.30;;
58992;SDS011;44782;0.000;0.000;2023-04-01T07:00:04;1.50;;;1.30;;
58992;SDS011;44782;0.000;0.000;2023-04-01T07:04:58;1.30;;;1.20;;
58992;SDS011;44782;0.000;0.000;2023-04-01T07:07:16;1.57;;;1.47;;
58992;SDS011;44782;0.000;0.000;2023-04-01T07:09:37;1.83;;;1.47;;
58992;SDS011;44782;0.000;0.000;2023-04-01T07:11:56;1.50;;;1.20;;
58992;SDS011;44782;0.000;0.000;2023-04-01T07:14:20;2.13;;;1.20;;
58992;SDS011;44782;0.000;0.000;2023-04-01T07:21:49;1.33;;;1.13;;
58992;SDS011;44782;0.000;0.000;2023-04-01T07:24:16;1.83;;;1.13;;
58992;SDS011;44782;0.000;0.000;2023-04-01T07:26:55;1.60;;;1.17;;
58992;SDS011;44782;0.000;0.000;2023-04-01T07:29:12;1.63;;;1.10;;
58992;SDS011;44782;0.000;0.000;2023-04-01T07:34:23;1.90;;;1.30;;
58992;SDS011;44782;0.000;0.000;2023-04-01T07:36:43;1.40;;;1.10;;
58992;SDS011;44782;0.000;0.000;2023-04-01T07:41:51;1.97;;;1.20;;
58992;SDS011;44782;0.000;0.000;2023-04-01T07:44:19;1.30;;;1.20;;
58992;SDS011;44782;0.000;0.000;2023-04-01T07:47:10;1.40;;;1.10;;
58992;SDS011;44782;0.000;0.000;2023-04-01T07:49:30;2.00;;;1.40;;
58992;SDS011;44782;0.000;0.000;2023-04-01T07:52:19;1.83;;;1.10;;
58992;SDS011;44782;0.000;0.000;2023-04-01T07:54:57;1.10;;;1.00;;
58992;SDS011;44782;0.000;0.000;2023-04-01T08:12:14;2.10;;;1.23;;
58992;SDS011;44782;0.000;0.000;2023-04-01T08:22:20;2.10;;;1.30;;
58992;SDS011;44782;0.000;0.000;2023-04-01T08:24:42;1.43;;;1.20;;
58992;SDS011;44782;0.000;0.000;2023-04-01T08:26:59;1.80;;;1.27;;
58992;SDS011;44782;0.000;0.000;2023-04-01T08:29:21;2.60;;;1.30;;
58992;SDS011;44782;0.000;0.000;2023-04-01T08:31:58;2.17;;;1.10;;
58992;SDS011;44782;0.000;0.000;2023-04-01T08:34:23;1.30;;;1.07;;
58992;SDS011;44782;0.000;0.000;2023-04-01T08:36:46;1.53;;;1.17;;
58992;SDS011;44782;0.000;0.000;2023-04-01T08:39:24;1.20;;;1.10;;
58992;SDS011;44782;0.000;0.000;2023-04-01T08:44:34;1.10;;;1.00;;
58992;SDS011;44782;0.000;0.000;2023-04-01T08:52:06;1.70;;;1.27;;
58992;SDS011;44782;0.000;0.000;2023-04-01T08:54:55;1.70;;;1.20;;
58992;SDS011;44782;0.000;0.000;2023-04-01T08:59:57;1.33;;;1.03;;
58992;SDS011;44782;0.000;0.000;2023-04-01T09:10:28;1.53;;;1.23;;
58992;SDS011;44782;0.000;0.000;2023-04-01T09:12:59;1.00;;;0.90;;
58992;SDS011;44782;0.000;0.000;2023-04-01T09:15:35;1.23;;;1.10;;
58992;SDS011;44782;0.000;0.000;2023-04-01T09:28:33;1.90;;;1.20;;
58992;SDS011;44782;0.000;0.000;2023-04-01T09:36:52;1.43;;;1.10;;
58992;SDS011;44782;0.000;0.000;2023-04-01T09:39:36;1.30;;;1.20;;
58992;SDS011;44782;0.000;0.000;2023-04-01T09:44:19;1.83;;;1.17;;
58992;SDS011;44782;0.000;0.000;2023-04-01T09:52:05;1.27;;;1.10;;
58992;SDS011;44782;0.000;0.000;2023-04-01T10:13:14;1.40;;;1.30;;
58992;SDS011;44782;0.000;0.000;2023-04-01T10:45:07;1.60;;;1.20;;
58992;SDS011;44782;0.000;0.000;2023-04-01T10:58:18;1.83;;;1.20;;
58992;SDS011;44782;0.000;0.000;2023-04-01T11:14:23;1.50;;;1.20;;
58992;SDS011;44782;0.000;0.000;2023-04-01T11:27:35;1.30;;;1.20;;
58992;SDS011;44782;0.000;0.000;2023-04-01T12:10:38;2.20;;;1.40;;
58992;SDS011;44782;0.000;0.000;2023-04-01T12:20:50;2.07;;;1.40;;
58992;SDS011;44782;0.000;0.000;2023-04-01T12:28:44;2.70;;;1.53;;
58992;SDS011;44782;0.000;0.000;2023-04-01T12:31:16;2.43;;;1.53;;
58992;SDS011;44782;0.000;0.000;2023-04-01T12:46:26;2.17;;;1.40;;
58992;SDS011;44782;0.000;0.000;2023-04-01T13:00:10;3.33;;;1.50;;
58992;SDS011;44782;0.000;0.000;2023-04-01T13:02:45;2.10;;;1.50;;
58992;SDS011;44782;0.000;0.000;2023-04-01T13:08:36;3.07;;;1.50;;
58992;SDS011;44782;0.000;0.000;2023-04-01T13:15:54;3.10;;;1.40;;
58992;SDS011;44782;0.000;0.000;2023-04-01T13:20:52;4.13;;;1.50;;
58992;SDS011;44782;0.000;0.000;2023-04-01T13:28:28;1.70;;;1.30;;
58992;SDS011;44782;0.000;0.000;2023-04-01T13:40:49;1.93;;;1.33;;
58992;SDS011;44782;0.000;0.000;2023-04-01T13:43:19;2.27;;;1.40;;
58992;SDS011;44782;0.000;0.000;2023-04-01T13:48:25;3.30;;;1.60;;
58992;SDS011;44782;0.000;0.000;2023-04-01T13:58:49;2.80;;;1.77;;
58992;SDS011;44782;0.000;0.000;2023-04-01T14:06:26;1.73;;;1.30;;
58992;SDS011;44782;0.000;0.000;2023-04-01T14:09:09;1.90;;;1.40;;
58992;SDS011;44782;0.000;0.000;2023-04-01T14:14:32;2.63;;;1.33;;
58992;SDS011;44782;0.000;0.000;2023-04-01T14:30:45;1.80;;;1.10;;
58992;SDS011;44782;0.000;0.000;2023-04-01T14:33:28;2.33;;;1.23;;
58992;SDS011;44782;0.000;0.000;2023-04-01T14:39:12;1.60;;;1.13;;
58992;SDS011;44782;0.000;0.000;2023-04-01T14:51:49;1.40;;;1.20;;
58992;SDS011;44782;0.000;0.000;2023-04-01T14:56:46;2.23;;;1.10;;
58992;SDS011;44782;0.000;0.000;2023-04-01T14:59:07;1.40;;;1.13;;
58992;SDS011;44782;0.000;0.000;2023-04-01T15:01:47;1.30;;;0.93;;
58992;SDS011;44782;0.000;0.000;2023-04-01T15:06:56;3.30;;;1.07;;
58992;SDS011;44782;0.000;0.000;2023-04-01T15:17:21;1.20;;;1.10;;
58992;SDS011;44782;0.000;0.000;2023-04-01T15:22:44;1.80;;;1.10;;
58992;SDS011;44782;0.000;0.000;2023-04-01T15:25:19;0.90;;;0.90;;
58992;SDS011;44782;0.000;0.000;2023-04-01T15:38:29;1.50;;;1.10;;
58992;SDS011;44782;0.000;0.000;2023-04-01T15:45:49;1.00;;;1.00;;
58992;SDS011;44782;0.000;0.000;2023-04-01T15:50:48;1.17;;;1.07;;
58992;SDS011;44782;0.000;0.000;2023-04-01T15:53:31;1.50;;;1.10;;
58992;SDS011;44782;0.000;0.000;2023-04-01T15:56:13;1.03;;;0.90;;
58992;SDS011;44782;0.000;0.000;2023-04-01T16:01:33;1.73;;;1.10;;
58992;SDS011;44782;0.000;0.000;2023-04-01T16:09:22;1.33;;;1.10;;
58992;SDS011;44782;0.000;0.000;2023-04-01T16:14:42;1.80;;;1.40;;
58992;SDS011;44782;0.000;0.000;2023-04-01T16:22:31;3.13;;;1.10;;
58992;SDS011;44782;0.000;0.000;2023-04-01T16:27:43;1.00;;;0.90;;
58992;SDS011;44782;0.000;0.000;2023-04-01T16:33:24;1.27;;;1.00;;
58992;SDS011;44782;0.000;0.000;2023-04-01T16:36:13;1.67;;;1.00;;
58992;SDS011;44782;0.000;0.000;2023-04-01T16:41:30;1.13;;;1.03;;
58992;SDS011;44782;0.000;0.000;2023-04-01T16:44:12;1.87;;;1.00;;
58992;SDS011;44782;0.000;0.000;2023-04-01T16:46:45;3.97;;;1.20;;
58992;SDS011;44782;0.000;0.000;2023-04-01T16:51:40;1.10;;;1.00;;
58992;SDS011;44782;0.000;0.000;2023-04-01T16:59:46;1.07;;;0.90;;
58992;SDS011;44782;0.000;0.000;2023-04-01T17:02:16;1.60;;;1.00;;
58992;SDS011;44782;0.000;0.000;2023-04-01T17:07:12;1.10;;;1.00;;
58992;SDS011;44782;0.000;0.000;2023-04-01T17:12:20;1.17;;;0.90;;
58992;SDS011;44782;0.000;0.000;2023-04-01T17:17:23;1.10;;;1.00;;
58992;SDS011;44782;0.000;0.000;2023-04-01T17:24:52;1.77;;;1.00;;
58992;SDS011;44782;0.000;0.000;2023-04-01T17:32:28;1.10;;;1.00;;
58992;SDS011;44782;0.000;0.000;2023-04-01T17:43:02;1.10;;;1.00;;
58992;SDS011;44782;0.000;0.000;2023-04-01T18:05:13;1.20;;;1.10;;
58992;SDS011;44782;0.000;0.000;2023-04-01T18:07:40;1.67;;;1.57;;
58992;SDS011;44782;0.000;0.000;2023-04-01T18:13:12;1.87;;;1.10;;
58992;SDS011;44782;0.000;0.000;2023-04-01T18:20:41;1.33;;;1.23;;
58992;SDS011;44782;0.000;0.000;2023-04-01T18:26:12;1.30;;;1.20;;
58992;SDS011;44782;0.000;0.000;2023-04-01T18:28:48;2.13;;;1.20;;
58992;SDS011;44782;0.000;0.000;2023-04-01T18:31:12;1.50;;;1.40;;
58992;SDS011;44782;0.000;0.000;2023-04-01T18:36:15;1.80;;;1.40;;
58992;SDS011;44782;0.000;0.000;2023-04-01T18:38:52;1.50;;;1.40;;
58992;SDS011;44782;0.000;0.000;2023-04-01T18:41:22;1.27;;;1.20;;
58992;SDS011;44782;0.000;0.000;2023-04-01T18:49:10;1.30;;;1.20;;
58992;SDS011;44782;0.000;0.000;2023-04-01T18:52:09;3.30;;;1.27;;
58992;SDS011;44782;0.000;0.000;2023-04-01T18:54:33;2.50;;;1.20;;
58992;SDS011;44782;0.000;0.000;2023-04-01T18:57:15;2.03;;;1.20;;
58992;SDS011;44782;0.000;0.000;2023-04-01T18:59:39;1.40;;;1.30;;
58992;SDS011;44782;0.000;0.000;2023-04-01T19:02:15;1.70;;;1.40;;
58992;SDS011;44782;0.000;0.000;2023-04-01T19:04:37;1.40;;;1.30;;
58992;SDS011;44782;0.000;0.000;2023-04-01T19:06:56;2.23;;;1.50;;
58992;SDS011;44782;0.000;0.000;2023-04-01T19:09:30;1.27;;;1.20;;
58992;SDS011;44782;0.000;0.000;2023-04-01T19:16:55;1.80;;;1.47;;
58992;SDS011;44782;0.000;0.000;2023-04-01T19:19:46;1.40;;;1.30;;
58992;SDS011;44782;0.000;0.000;2023-04-01T19:24:53;1.40;;;1.30;;
58992;SDS011;44782;0.000;0.000;2023-04-01T19:27:53;1.93;;;1.47;;
58992;SDS011;44782;0.000;0.000;2023-04-01T19:38:23;2.10;;;1.80;;
58992;SDS011;44782;0.000;0.000;2023-04-01T19:40:43;2.67;;;2.10;;
58992;SDS011;44782;0.000;0.000;2023-04-01T19:43:49;1.90;;;1.80;;
58992;SDS011;44782;0.000;0.000;2023-04-01T19:56:18;3.37;;;1.80;;
58992;SDS011;44782;0.000;0.000;2023-04-01T20:00:58;2.10;;;1.70;;
58992;SDS011;44782;0.000;0.000;2023-04-01T20:03:27;2.77;;;1.60;;
58992;SDS011;44782;0.000;0.000;2023-04-01T20:08:54;2.43;;;1.70;;
58992;SDS011;44782;0.000;0.000;2023-04-01T20:19:11;2.50;;;1.80;;
58992;SDS011;44782;0.000;0.000;2023-04-01T20:21:30;2.03;;;1.70;;
58992;SDS011;44782;0.000;0.000;2023-04-01T20:23:56;2.80;;;1.90;;
58992;SDS011;44782;0.000;0.000;2023-04-01T20:26:20;2.00;;;1.77;;
58992;SDS011;44782;0.000;0.000;2023-04-01T20:28:49;1.90;;;1.70;;
58992;SDS011;44782;0.000;0.000;2023-04-01T20:31:34;1.80;;;1.70;;
58992;SDS011;44782;0.000;0.000;2023-04-01T20:34:05;1.70;;;1.60;;
58992;SDS011;44782;0.000;0.000;2023-04-01T20:51:43;2.10;;;1.90;;
58992;SDS011;44782;0.000;0.000;2023-04-01T20:56:43;1.90;;;1.70;;
58992;SDS011;44782;0.000;0.000;2023-04-01T21:34:52;1.93;;;1.63;;
58992;SDS011;44782;0.000;0.000;2023-04-01T21:42:40;2.30;;;1.93;;
58992;SDS011;44782;0.000;0.000;2023-04-01T21:45:14;2.20;;;2.00;;
58992;SDS011;44782;0.000;0.000;2023-04-01T21:53:03;2.37;;;2.10;;
58992;SDS011;44782;0.000;0.000;2023-04-01T21:58:05;2.23;;;2.00;;
58992;SDS011;44782;0.000;0.000;2023-04-01T22:00:38;2.00;;;1.83;;
58992;SDS011;44782;0.000;0.000;2023-04-01T22:13:44;2.00;;;1.80;;
58992;SDS011;44782;0.000;0.000;2023-04-01T22:16:19;1.83;;;1.73;;
58992;SDS011;44782;0.000;0.000;2023-04-01T22:29:06;2.57;;;1.93;;
58992;SDS011;44782;0.000;0.000;2023-04-01T22:31:29;2.03;;;1.83;;
58992;SDS011;44782;0.000;0.000;2023-04-01T22:47:28;2.10;;;1.90;;
58992;SDS011;44782;0.000;0.000;2023-04-01T22:50:33;2.13;;;1.93;;
58992;SDS011;44782;0.000;0.000;2023-04-01T22:52:47;2.10;;;1.90;;
58992;SDS011;44782;0.000;0.000;2023-04-01T22:55:32;2.20;;;2.00;;
58992;SDS011;44782;0.000;0.000;2023-04-01T22:58:09;2.17;;;1.77;;
58992;SDS011;44782;0.000;0.000;2023-04-01T23:00:45;2.10;;;1.90;;
58992;SDS011;44782;0.000;0.000;2023-04-01T23:03:11;2.20;;;2.00;;
58992;SDS011;44782;0.000;0.000;2023-04-01T23:05:28;1.77;;;1.67;;
58992;SDS011;44782;0.000;0.000;2023-04-01T23:10:42;2.20;;;2.00;;
58992;SDS011;44782;0.000;0.000;2023-04-01T23:13:10;2.10;;;1.90;;
58992;SDS011;44782;0.000;0.000;2023-04-01T23:15:33;1.70;;;1.60;;
58992;SDS011;44782;0.000;0.000;2023-04-01T23:30:58;1.80;;;1.70;;
58992;SDS011;44782;0.000;0.000;2023-04-01T23:35:32;2.10;;;1.90;;
58992;SDS011;44782;0.000;0.000;2023-04-01T23:37:47;2.07;;;1.87;;
58992;SDS011;44782;0.000;0.000;2023-04-01T23:40:03;3.13;;;1.87;;
58992;SDS011;44782;0.000;0.000;2023-04-01T23:42:28;2.00;;;1.90;;
58992;SDS011;44782;0.000;0.000;2023-04-01T23:44:56;1.70;;;1.60;;
58992;SDS011;44782;0.000;0.000;2023-04-01T23:47:21;1.63;;;1.53;;
58992;SDS011;44782;0.000;0.000;2023-04-01T23:49:53;2.27;;;1.80;;
58992;SDS011;44782;0.000;0.000;2023-04-01T23:54:43;2.23;;;1.60;;
58992;SDS011;44782;0.000;0.000;2023-04-01T23:57:13;1.80;;;1.70;;
58992;SDS011;44782;0.000;0.000;2023-04-01T23:59:34;2.00;;;1.80;;
